Springfield, OH (45502)

2:49 PM EDT on August 29, 2014 (GMT -0400)
Snyder Park | Change Station
CLOSE
Current Station
Personal Weather Station
Location: Springfield, OH
Elevation: 919 ft
Nearby Weather Stations

Elev 919 ft 39.93 °N, 83.85 °W | Updated 1 second ago

Clear
Clear
84.1 °F
Feels Like 87 °F
N
3.5
Wind Variable Wind from SE
Gusts 11.5 mph

Today
High -- | Low -- °F
--% Chance of Precip.
Yesterday
High -- | Low -- °F
Precip. -- in
7:00 AM 8:11 PM
Waxing Crescent, 16% visible
Pressure 30.10 in
Visibility 10.0 miles
Clouds Clear
Heat Index 87 °F
Dew Point 67 °F
Humidity 57%
Rainfall 0.00 in
Snow Depth Not available.
UV 10 out of 12
Pollen 10.40 out of 12
Ozone Good
PM2.5 Good
Flu Activity Not available.
METAR KSGH 291756Z AUTO 12010KT 10SM CLR 27/19 A3012 RMK AO2 58011 T02720188 10272 20161 SLP191

More Conditions Fewer Conditions

Pressure 30.10 in
Visibility 10.0 miles
Clouds Clear
Heat Index 87 °F
Dew Point 67 °F
Humidity 57%
Rainfall 0.00 in
Snow Depth Not available.
UV 10 out of 12
Pollen 10.40 out of 12
Ozone Good
PM2.5 Good
Flu Activity Not available.
METAR KSGH 291756Z AUTO 12010KT 10SM CLR 27/19 A3012 RMK AO2 58011 T02720188 10272 20161 SLP191

More Conditions Fewer Conditions

10-Day Weather Forecast

Almanac

Astronomy

Aug. 29, 2014 Rise Set
Actual Time 7:00 AM EDT 8:11 PM EDT
Civil Twilight 6:32 AM EDT 8:39 PM EDT
Nautical Twilight 5:58 AM EDT 9:12 PM EDT
Astronomical Twilight 5:24 AM EDT 9:47 PM EDT
Moon 10:48 AM EDT 10:08 PM EDT
Length of Visible Light 14h 06m
Length of Day
13h 11m
Tomorrow will be 2m 30s shorter.
Waxing Crescent, 16% of the Moon is Illuminated
Today
Waxing Crescent
Sep 2
First Quarter
Sep 8
Full
Sep 15
Last Quarter
Sep 24
New

Today's Extremes

State Highs State Lows

Community

WunderPhotos

Upload Photos

1,748,314 photos uploaded!

Nearby

Air Quality

  Air Quality AQ Index Pollutant
Yesterday Good
OZONE
Yesterday Good
PM2.5
Current Good
OZONE
Current Good
PM2.5
Friday Moderate
PM2.5
Friday Good
OZONE
Saturday Moderate
PM2.5
Saturday Good
OZONE
Sunday Good
PM2.5
Sunday Good
OZONE
Monday Moderate
PM2.5
Monday Good
OZONE
Tuesday Moderate
PM2.5
Tuesday Good
OZONE

Snow Depth

Station Depth Elevation
No new snow has been reported.

Earthquake Activity

City Distance Mag. Time & Date
No recent earthquake activity has been reported nearby.
Minimum magnitude displayed is 2.5.

Coastal Water Temperatures

Place Temperature
No Stations Reporting

Nearby Weather Stations